sensor_id;sensor_type;location;lat;lon;timestamp;temperature;humidity
21551;DHT22;10936;49.836;7.078;2023-04-24T05:02:17;6.70;99.90
21551;DHT22;10936;49.836;7.078;2023-04-24T05:04:42;6.60;99.90
21551;DHT22;10936;49.836;7.078;2023-04-24T05:07:08;6.70;99.90
21551;DHT22;10936;49.836;7.078;2023-04-24T05:09:34;6.80;99.90
21551;DHT22;10936;49.836;7.078;2023-04-24T05:11:59;6.80;99.90
21551;DHT22;10936;49.836;7.078;2023-04-24T05:14:25;6.80;99.90
21551;DHT22;10936;49.836;7.078;2023-04-24T05:16:51;6.90;99.90
21551;DHT22;10936;49.836;7.078;2023-04-24T05:19:17;6.90;99.90
21551;DHT22;10936;49.836;7.078;2023-04-24T05:21:42;6.90;99.90
21551;DHT22;10936;49.836;7.078;2023-04-24T05:24:08;6.90;99.90
21551;DHT22;10936;49.836;7.078;2023-04-24T05:26:33;6.90;99.90
21551;DHT22;10936;49.836;7.078;2023-04-24T05:29:01;6.90;99.90
21551;DHT22;10936;49.836;7.078;2023-04-24T05:31:26;6.90;99.90
21551;DHT22;10936;49.836;7.078;2023-04-24T05:33:52;6.90;99.90
21551;DHT22;10936;49.836;7.078;2023-04-24T05:36:17;6.90;99.90
21551;DHT22;10936;49.836;7.078;2023-04-24T05:38:43;6.90;99.90
21551;DHT22;10936;49.836;7.078;2023-04-24T05:41:08;7.00;99.90
21551;DHT22;10936;49.836;7.078;2023-04-24T05:43:34;7.00;99.90
21551;DHT22;10936;49.836;7.078;2023-04-24T05:45:59;7.00;99.90
21551;DHT22;10936;49.836;7.078;2023-04-24T05:48:25;7.00;99.90
21551;DHT22;10936;49.836;7.078;2023-04-24T05:50:51;7.10;99.90
21551;DHT22;10936;49.836;7.078;2023-04-24T05:53:18;7.10;99.90
21551;DHT22;10936;49.836;7.078;2023-04-24T05:55:43;7.10;99.90
21551;DHT22;10936;49.836;7.078;2023-04-24T05:58:09;7.00;99.90
21551;DHT22;10936;49.836;7.078;2023-04-24T06:00:35;7.10;99.90
21551;DHT22;10936;49.836;7.078;2023-04-24T06:03:01;7.20;99.90
21551;DHT22;10936;49.836;7.078;2023-04-24T06:05:29;7.30;99.90
21551;DHT22;10936;49.836;7.078;2023-04-24T06:07:55;7.30;99.90
21551;DHT22;10936;49.836;7.078;2023-04-24T06:10:21;7.80;99.90
21551;DHT22;10936;49.836;7.078;2023-04-24T06:12:46;9.20;99.90
21551;DHT22;10936;49.836;7.078;2023-04-24T06:15:12;10.20;99.90
21551;DHT22;10936;49.836;7.078;2023-04-24T06:17:38;10.50;99.90
21551;DHT22;10936;49.836;7.078;2023-04-24T06:20:04;9.90;99.90
21551;DHT22;10936;49.836;7.078;2023-04-24T06:22:31;8.90;99.90
21551;DHT22;10936;49.836;7.078;2023-04-24T06:24:56;8.60;99.90
21551;DHT22;10936;49.836;7.078;2023-04-24T06:27:22;8.20;99.90
21551;DHT22;10936;49.836;7.078;2023-04-24T06:29:47;8.10;99.90
21551;DHT22;10936;49.836;7.078;2023-04-24T06:32:23;8.10;99.90
21551;DHT22;10936;49.836;7.078;2023-04-24T06:34:49;8.10;99.90
21551;DHT22;10936;49.836;7.078;2023-04-24T06:37:16;8.00;99.90
21551;DHT22;10936;49.836;7.078;2023-04-24T06:39:41;7.90;99.90
21551;DHT22;10936;49.836;7.078;2023-04-24T06:42:07;7.70;99.90
21551;DHT22;10936;49.836;7.078;2023-04-24T06:44:35;7.60;99.90
21551;DHT22;10936;49.836;7.078;2023-04-24T06:47:09;7.50;99.90
21551;DHT22;10936;49.836;7.078;2023-04-24T06:49:36;7.50;99.90
21551;DHT22;10936;49.836;7.078;2023-04-24T06:52:01;7.50;99.90
21551;DHT22;10936;49.836;7.078;2023-04-24T06:54:27;7.80;99.90
21551;DHT22;10936;49.836;7.078;2023-04-24T06:56:52;7.90;99.90
21551;DHT22;10936;49.836;7.078;2023-04-24T06:59:18;8.20;99.90
21551;DHT22;10936;49.836;7.078;2023-04-24T07:01:44;8.20;99.90
21551;DHT22;10936;49.836;7.078;2023-04-24T07:04:09;8.20;99.90
21551;DHT22;10936;49.836;7.078;2023-04-24T07:06:35;8.40;99.90
21551;DHT22;10936;49.836;7.078;2023-04-24T07:09:01;8.50;99.90
21551;DHT22;10936;49.836;7.078;2023-04-24T07:11:27;8.40;99.90
21551;DHT22;10936;49.836;7.078;2023-04-24T07:13:55;8.40;99.90
21551;DHT22;10936;49.836;7.078;2023-04-24T07:16:20;8.40;99.90
21551;DHT22;10936;49.836;7.078;2023-04-24T07:18:46;8.50;99.90
21551;DHT22;10936;49.836;7.078;2023-04-24T07:21:12;8.50;99.90
21551;DHT22;10936;49.836;7.078;2023-04-24T07:23:37;8.40;99.90
21551;DHT22;10936;49.836;7.078;2023-04-24T07:26:03;8.30;99.90
21551;DHT22;10936;49.836;7.078;2023-04-24T07:28:29;8.20;99.90
21551;DHT22;10936;49.836;7.078;2023-04-24T07:30:58;8.00;99.90
21551;DHT22;10936;49.836;7.078;2023-04-24T07:33:25;7.80;99.90
21551;DHT22;10936;49.836;7.078;2023-04-24T07:35:51;8.00;99.90
21551;DHT22;10936;49.836;7.078;2023-04-24T07:38:17;8.00;99.90
21551;DHT22;10936;49.836;7.078;2023-04-24T07:40:45;7.90;99.90
21551;DHT22;10936;49.836;7.078;2023-04-24T07:43:11;7.80;99.90
21551;DHT22;10936;49.836;7.078;2023-04-24T07:45:36;7.80;99.90
21551;DHT22;10936;49.836;7.078;2023-04-24T07:48:03;7.80;99.90
21551;DHT22;10936;49.836;7.078;2023-04-24T07:50:29;7.90;99.90
21551;DHT22;10936;49.836;7.078;2023-04-24T07:52:54;7.90;99.90
21551;DHT22;10936;49.836;7.078;2023-04-24T07:55:20;7.90;99.90
21551;DHT22;10936;49.836;7.078;2023-04-24T07:57:45;7.80;99.90
21551;DHT22;10936;49.836;7.078;2023-04-24T08:00:11;7.80;99.90
21551;DHT22;10936;49.836;7.078;2023-04-24T08:02:37;7.70;99.90
21551;DHT22;10936;49.836;7.078;2023-04-24T08:05:03;7.80;99.90
21551;DHT22;10936;49.836;7.078;2023-04-24T08:07:29;8.00;99.90
21551;DHT22;10936;49.836;7.078;2023-04-24T08:09:54;7.90;99.90
21551;DHT22;10936;49.836;7.078;2023-04-24T08:12:20;7.80;99.90
21551;DHT22;10936;49.836;7.078;2023-04-24T08:14:46;7.90;99.90
21551;DHT22;10936;49.836;7.078;2023-04-24T08:17:11;7.80;99.90
21551;DHT22;10936;49.836;7.078;2023-04-24T08:19:37;8.00;99.90
21551;DHT22;10936;49.836;7.078;2023-04-24T08:22:02;8.10;99.90
21551;DHT22;10936;49.836;7.078;2023-04-24T08:24:29;7.90;99.90
21551;DHT22;10936;49.836;7.078;2023-04-24T08:26:55;8.00;99.90
21551;DHT22;10936;49.836;7.078;2023-04-24T08:29:23;8.00;99.90
21551;DHT22;10936;49.836;7.078;2023-04-24T08:31:48;8.20;99.90
21551;DHT22;10936;49.836;7.078;2023-04-24T08:34:14;8.20;99.90
21551;DHT22;10936;49.836;7.078;2023-04-24T08:36:39;8.10;99.90
21551;DHT22;10936;49.836;7.078;2023-04-24T08:39:06;7.90;99.90
21551;DHT22;10936;49.836;7.078;2023-04-24T08:41:33;7.80;99.90
21551;DHT22;10936;49.836;7.078;2023-04-24T08:44:02;7.80;99.90
21551;DHT22;10936;49.836;7.078;2023-04-24T08:46:28;7.80;99.90
21551;DHT22;10936;49.836;7.078;2023-04-24T08:48:56;7.80;99.90
21551;DHT22;10936;49.836;7.078;2023-04-24T08:51:22;7.70;99.90
21551;DHT22;10936;49.836;7.078;2023-04-24T08:53:50;7.90;99.90
21551;DHT22;10936;49.836;7.078;2023-04-24T08:56:17;8.30;99.90
21551;DHT22;10936;49.836;7.078;2023-04-24T08:58:43;8.60;99.90
21551;DHT22;10936;49.836;7.078;2023-04-24T09:01:09;8.40;99.90
21551;DHT22;10936;49.836;7.078;2023-04-24T09:03:35;8.20;99.90
21551;DHT22;10936;49.836;7.078;2023-04-24T09:06:01;8.10;99.90
21551;DHT22;10936;49.836;7.078;2023-04-24T09:08:28;8.20;99.90
21551;DHT22;10936;49.836;7.078;2023-04-24T09:10:54;8.40;99.90
21551;DHT22;10936;49.836;7.078;2023-04-24T09:13:21;8.50;99.90
21551;DHT22;10936;49.836;7.078;2023-04-24T09:15:46;8.40;99.90
21551;DHT22;10936;49.836;7.078;2023-04-24T09:18:12;8.30;99.90
21551;DHT22;10936;49.836;7.078;2023-04-24T09:21:06;8.40;99.90
21551;DHT22;10936;49.836;7.078;2023-04-24T09:23:32;8.70;99.90
21551;DHT22;10936;49.836;7.078;2023-04-24T09:25:59;8.60;99.90
21551;DHT22;10936;49.836;7.078;2023-04-24T09:28:45;8.80;99.90
21551;DHT22;10936;49.836;7.078;2023-04-24T09:31:18;8.90;99.90
21551;DHT22;10936;49.836;7.078;2023-04-24T09:34:02;8.90;99.90
21551;DHT22;10936;49.836;7.078;2023-04-24T09:36:38;8.90;99.90
21551;DHT22;10936;49.836;7.078;2023-04-24T09:39:12;8.60;99.90
21551;DHT22;10936;49.836;7.078;2023-04-24T09:41:49;8.50;99.90
21551;DHT22;10936;49.836;7.078;2023-04-24T09:44:18;8.50;99.90
21551;DHT22;10936;49.836;7.078;2023-04-24T09:46:50;8.50;99.90
21551;DHT22;10936;49.836;7.078;2023-04-24T09:49:21;8.60;99.90
21551;DHT22;10936;49.836;7.078;2023-04-24T09:51:47;8.60;99.90
21551;DHT22;10936;49.836;7.078;2023-04-24T09:54:20;8.90;99.90
21551;DHT22;10936;49.836;7.078;2023-04-24T09:56:47;9.30;99.90
21551;DHT22;10936;49.836;7.078;2023-04-24T09:59:14;9.90;99.90
21551;DHT22;10936;49.836;7.078;2023-04-24T10:01:40;10.10;99.90
21551;DHT22;10936;49.836;7.078;2023-04-24T10:04:21;9.90;99.90
21551;DHT22;10936;49.836;7.078;2023-04-24T10:06:49;9.60;99.90
21551;DHT22;10936;49.836;7.078;2023-04-24T10:09:19;9.30;99.90
21551;DHT22;10936;49.836;7.078;2023-04-24T10:11:48;9.20;99.90
21551;DHT22;10936;49.836;7.078;2023-04-24T10:14:15;9.30;99.90
21551;DHT22;10936;49.836;7.078;2023-04-24T10:16:41;9.60;99.90
21551;DHT22;10936;49.836;7.078;2023-04-24T10:19:08;11.70;99.90
21551;DHT22;10936;49.836;7.078;2023-04-24T10:21:34;12.80;99.90
21551;DHT22;10936;49.836;7.078;2023-04-24T10:24:00;12.40;99.90
21551;DHT22;10936;49.836;7.078;2023-04-24T10:26:29;11.70;99.90
21551;DHT22;10936;49.836;7.078;2023-04-24T10:28:57;11.20;99.90
21551;DHT22;10936;49.836;7.078;2023-04-24T10:31:23;10.80;99.90
21551;DHT22;10936;49.836;7.078;2023-04-24T10:33:50;11.10;99.90
21551;DHT22;10936;49.836;7.078;2023-04-24T10:36:17;10.90;99.90
21551;DHT22;10936;49.836;7.078;2023-04-24T10:38:45;10.20;99.90
21551;DHT22;10936;49.836;7.078;2023-04-24T10:41:12;10.00;99.90
21551;DHT22;10936;49.836;7.078;2023-04-24T10:43:45;10.00;99.90
21551;DHT22;10936;49.836;7.078;2023-04-24T10:46:18;10.00;99.90
21551;DHT22;10936;49.836;7.078;2023-04-24T10:48:52;10.90;99.90
21551;DHT22;10936;49.836;7.078;2023-04-24T10:51:22;11.60;99.90
21551;DHT22;10936;49.836;7.078;2023-04-24T10:53:50;12.00;99.90
21551;DHT22;10936;49.836;7.078;2023-04-24T10:56:16;12.20;99.90
21551;DHT22;10936;49.836;7.078;2023-04-24T10:58:49;12.20;99.90
21551;DHT22;10936;49.836;7.078;2023-04-24T11:01:25;11.70;99.90
21551;DHT22;10936;49.836;7.078;2023-04-24T11:03:56;10.90;99.90
21551;DHT22;10936;49.836;7.078;2023-04-24T11:06:32;10.90;99.90
21551;DHT22;10936;49.836;7.078;2023-04-24T11:09:07;11.50;99.90
21551;DHT22;10936;49.836;7.078;2023-04-24T11:11:34;12.50;99.90
21551;DHT22;10936;49.836;7.078;2023-04-24T11:14:02;13.00;99.90
21551;DHT22;10936;49.836;7.078;2023-04-24T11:16:45;13.60;99.90
21551;DHT22;10936;49.836;7.078;2023-04-24T11:21:49;13.60;99.90
21551;DHT22;10936;49.836;7.078;2023-04-24T11:26:59;13.50;99.90
21551;DHT22;10936;49.836;7.078;2023-04-24T11:30:17;14.00;99.90
21551;DHT22;10936;49.836;7.078;2023-04-24T11:32:40;13.60;99.90
21551;DHT22;10936;49.836;7.078;2023-04-24T11:35:10;13.10;99.90
21551;DHT22;10936;49.836;7.078;2023-04-24T11:37:43;12.70;99.90
21551;DHT22;10936;49.836;7.078;2023-04-24T11:40:11;12.10;99.90
21551;DHT22;10936;49.836;7.078;2023-04-24T11:42:41;11.80;99.90
21551;DHT22;10936;49.836;7.078;2023-04-24T11:47:40;11.50;99.90
21551;DHT22;10936;49.836;7.078;2023-04-24T11:50:12;11.60;99.90
21551;DHT22;10936;49.836;7.078;2023-04-24T11:52:40;11.40;99.90
21551;DHT22;10936;49.836;7.078;2023-04-24T11:55:25;11.30;99.90
21551;DHT22;10936;49.836;7.078;2023-04-24T11:57:57;11.20;99.90
21551;DHT22;10936;49.836;7.078;2023-04-24T12:00:28;11.50;99.90
21551;DHT22;10936;49.836;7.078;2023-04-24T12:03:12;11.70;99.90
21551;DHT22;10936;49.836;7.078;2023-04-24T12:05:38;11.60;99.90
21551;DHT22;10936;49.836;7.078;2023-04-24T12:08:05;11.60;99.90
21551;DHT22;10936;49.836;7.078;2023-04-24T12:10:32;11.80;99.90
21551;DHT22;10936;49.836;7.078;2023-04-24T12:12:58;11.60;99.90
21551;DHT22;10936;49.836;7.078;2023-04-24T12:15:25;11.50;99.90
21551;DHT22;10936;49.836;7.078;2023-04-24T12:17:52;11.30;99.90
21551;DHT22;10936;49.836;7.078;2023-04-24T12:20:24;11.20;99.90
21551;DHT22;10936;49.836;7.078;2023-04-24T12:22:52;11.00;99.90
21551;DHT22;10936;49.836;7.078;2023-04-24T12:25:21;10.90;99.90
21551;DHT22;10936;49.836;7.078;2023-04-24T12:30:34;10.70;99.90
21551;DHT22;10936;49.836;7.078;2023-04-24T12:33:02;10.50;99.90
21551;DHT22;10936;49.836;7.078;2023-04-24T12:35:29;10.30;99.90
21551;DHT22;10936;49.836;7.078;2023-04-24T12:37:55;10.40;99.90
21551;DHT22;10936;49.836;7.078;2023-04-24T12:40:21;10.40;99.90
21551;DHT22;10936;49.836;7.078;2023-04-24T12:42:51;10.60;99.90
21551;DHT22;10936;49.836;7.078;2023-04-24T12:45:20;10.80;99.90
21551;DHT22;10936;49.836;7.078;2023-04-24T12:47:46;11.10;99.90
21551;DHT22;10936;49.836;7.078;2023-04-24T12:50:14;11.20;99.90
21551;DHT22;10936;49.836;7.078;2023-04-24T12:52:40;11.80;99.90
21551;DHT22;10936;49.836;7.078;2023-04-24T12:55:06;12.30;99.90
21551;DHT22;10936;49.836;7.078;2023-04-24T12:57:37;12.80;99.90
21551;DHT22;10936;49.836;7.078;2023-04-24T13:00:04;12.90;99.90
21551;DHT22;10936;49.836;7.078;2023-04-24T13:02:30;12.90;99.90
21551;DHT22;10936;49.836;7.078;2023-04-24T13:05:00;12.90;99.90
21551;DHT22;10936;49.836;7.078;2023-04-24T13:07:26;12.90;99.90
21551;DHT22;10936;49.836;7.078;2023-04-24T13:09:53;12.90;99.90
21551;DHT22;10936;49.836;7.078;2023-04-24T13:12:19;12.20;99.90
21551;DHT22;10936;49.836;7.078;2023-04-24T13:14:46;11.50;99.90
21551;DHT22;10936;49.836;7.078;2023-04-24T13:17:11;11.00;99.90
21551;DHT22;10936;49.836;7.078;2023-04-24T13:19:40;11.00;99.90
21551;DHT22;10936;49.836;7.078;2023-04-24T13:22:06;11.50;99.90
21551;DHT22;10936;49.836;7.078;2023-04-24T13:24:33;12.10;99.90
21551;DHT22;10936;49.836;7.078;2023-04-24T13:26:59;12.20;99.90
21551;DHT22;10936;49.836;7.078;2023-04-24T13:29:25;11.90;99.90
21551;DHT22;10936;49.836;7.078;2023-04-24T13:31:51;11.80;99.90
21551;DHT22;10936;49.836;7.078;2023-04-24T13:34:17;11.70;99.90
21551;DHT22;10936;49.836;7.078;2023-04-24T13:36:43;11.70;99.90
21551;DHT22;10936;49.836;7.078;2023-04-24T13:39:15;11.70;99.90
21551;DHT22;10936;49.836;7.078;2023-04-24T13:41:41;11.90;99.90
21551;DHT22;10936;49.836;7.078;2023-04-24T13:44:06;12.30;99.90
21551;DHT22;10936;49.836;7.078;2023-04-24T13:46:32;12.50;99.90
21551;DHT22;10936;49.836;7.078;2023-04-24T13:48:58;12.60;99.90
21551;DHT22;10936;49.836;7.078;2023-04-24T13:51:27;12.60;99.90
21551;DHT22;10936;49.836;7.078;2023-04-24T13:53:53;13.10;99.90
21551;DHT22;10936;49.836;7.078;2023-04-24T13:56:19;13.90;99.90
21551;DHT22;10936;49.836;7.078;2023-04-24T13:58:45;14.40;99.90
21551;DHT22;10936;49.836;7.078;2023-04-24T14:01:12;14.50;99.90
21551;DHT22;10936;49.836;7.078;2023-04-24T14:03:37;14.60;99.90
21551;DHT22;10936;49.836;7.078;2023-04-24T14:06:03;14.40;99.90
21551;DHT22;10936;49.836;7.078;2023-04-24T14:08:29;14.10;99.90
21551;DHT22;10936;49.836;7.078;2023-04-24T14:10:55;13.90;99.90
21551;DHT22;10936;49.836;7.078;2023-04-24T14:13:20;13.60;99.90
21551;DHT22;10936;49.836;7.078;2023-04-24T14:15:46;13.30;99.90
21551;DHT22;10936;49.836;7.078;2023-04-24T14:18:12;13.00;99.90
21551;DHT22;10936;49.836;7.078;2023-04-24T14:20:37;13.00;99.90
21551;DHT22;10936;49.836;7.078;2023-04-24T14:23:03;13.00;99.90
21551;DHT22;10936;49.836;7.078;2023-04-24T14:25:30;13.20;99.90
21551;DHT22;10936;49.836;7.078;2023-04-24T14:27:55;13.50;99.90
21551;DHT22;10936;49.836;7.078;2023-04-24T14:30:21;13.80;99.90
21551;DHT22;10936;49.836;7.078;2023-04-24T14:32:47;14.10;99.90
21551;DHT22;10936;49.836;7.078;2023-04-24T14:35:13;14.10;99.90
21551;DHT22;10936;49.836;7.078;2023-04-24T14:37:39;14.00;99.90
21551;DHT22;10936;49.836;7.078;2023-04-24T14:40:07;14.00;99.90
21551;DHT22;10936;49.836;7.078;2023-04-24T14:42:33;14.30;99.90
21551;DHT22;10936;49.836;7.078;2023-04-24T14:44:59;14.40;99.90
21551;DHT22;10936;49.836;7.078;2023-04-24T14:47:25;14.10;99.90
21551;DHT22;10936;49.836;7.078;2023-04-24T14:49:51;13.70;99.90
21551;DHT22;10936;49.836;7.078;2023-04-24T14:52:16;13.20;99.90
21551;DHT22;10936;49.836;7.078;2023-04-24T14:54:43;12.90;99.90
21551;DHT22;10936;49.836;7.078;2023-04-24T14:57:08;12.90;99.90
21551;DHT22;10936;49.836;7.078;2023-04-24T14:59:34;12.90;99.90
21551;DHT22;10936;49.836;7.078;2023-04-24T15:02:00;13.00;99.90
21551;DHT22;10936;49.836;7.078;2023-04-24T15:04:27;13.00;99.90
21551;DHT22;10936;49.836;7.078;2023-04-24T15:06:53;13.10;99.90
21551;DHT22;10936;49.836;7.078;2023-04-24T15:09:23;13.00;99.90
21551;DHT22;10936;49.836;7.078;2023-04-24T15:11:50;13.00;99.90
21551;DHT22;10936;49.836;7.078;2023-04-24T15:14:17;12.80;99.90
21551;DHT22;10936;49.836;7.078;2023-04-24T15:16:42;12.60;99.90
21551;DHT22;10936;49.836;7.078;2023-04-24T15:19:08;12.10;99.90
21551;DHT22;10936;49.836;7.078;2023-04-24T15:21:35;11.60;99.90
21551;DHT22;10936;49.836;7.078;2023-04-24T15:24:01;11.10;99.90
21551;DHT22;10936;49.836;7.078;2023-04-24T15:26:26;10.70;99.90
21551;DHT22;10936;49.836;7.078;2023-04-24T15:28:52;10.20;99.90
21551;DHT22;10936;49.836;7.078;2023-04-24T15:31:18;9.90;99.90
21551;DHT22;10936;49.836;7.078;2023-04-24T15:33:44;9.60;99.90
21551;DHT22;10936;49.836;7.078;2023-04-24T15:36:10;9.50;99.90
21551;DHT22;10936;49.836;7.078;2023-04-24T15:38:36;9.60;99.90
21551;DHT22;10936;49.836;7.078;2023-04-24T15:41:02;9.40;99.90
21551;DHT22;10936;49.836;7.078;2023-04-24T15:43:27;9.20;99.90
21551;DHT22;10936;49.836;7.078;2023-04-24T15:45:56;8.90;99.90
21551;DHT22;10936;49.836;7.078;2023-04-24T15:48:22;8.60;99.90
21551;DHT22;10936;49.836;7.078;2023-04-24T15:50:48;8.60;99.90
21551;DHT22;10936;49.836;7.078;2023-04-24T15:53:14;9.10;99.90
21551;DHT22;10936;49.836;7.078;2023-04-24T15:55:47;9.90;99.90
21551;DHT22;10936;49.836;7.078;2023-04-24T15:58:12;10.90;99.90
21551;DHT22;10936;49.836;7.078;2023-04-24T16:00:38;11.40;99.90
21551;DHT22;10936;49.836;7.078;2023-04-24T16:03:04;11.60;99.90
21551;DHT22;10936;49.836;7.078;2023-04-24T16:05:29;12.10;99.90
21551;DHT22;10936;49.836;7.078;2023-04-24T16:07:55;12.20;99.90
21551;DHT22;10936;49.836;7.078;2023-04-24T16:10:21;12.20;99.90
21551;DHT22;10936;49.836;7.078;2023-04-24T16:12:47;11.80;99.90
21551;DHT22;10936;49.836;7.078;2023-04-24T16:15:12;11.10;99.90
21551;DHT22;10936;49.836;7.078;2023-04-24T16:17:38;10.70;99.90
21551;DHT22;10936;49.836;7.078;2023-04-24T16:20:04;10.40;99.90
21551;DHT22;10936;49.836;7.078;2023-04-24T16:22:30;10.50;99.90
21551;DHT22;10936;49.836;7.078;2023-04-24T16:24:55;10.40;99.90
21551;DHT22;10936;49.836;7.078;2023-04-24T16:27:25;10.20;99.90
21551;DHT22;10936;49.836;7.078;2023-04-24T16:29:51;10.20;99.90
21551;DHT22;10936;49.836;7.078;2023-04-24T16:32:17;10.00;99.90
21551;DHT22;10936;49.836;7.078;2023-04-24T16:34:42;9.90;99.90
21551;DHT22;10936;49.836;7.078;2023-04-24T16:37:08;9.90;99.90
21551;DHT22;10936;49.836;7.078;2023-04-24T16:39:34;9.90;99.90
21551;DHT22;10936;49.836;7.078;2023-04-24T16:42:00;9.70;99.90
21551;DHT22;10936;49.836;7.078;2023-04-24T16:44:26;9.60;99.90
21551;DHT22;10936;49.836;7.078;2023-04-24T16:46:52;9.60;99.90
21551;DHT22;10936;49.836;7.078;2023-04-24T16:49:17;9.50;99.90
21551;DHT22;10936;49.836;7.078;2023-04-24T16:51:43;9.70;99.90
21551;DHT22;10936;49.836;7.078;2023-04-24T16:54:09;9.90;99.90
21551;DHT22;10936;49.836;7.078;2023-04-24T16:56:35;9.80;99.90
21551;DHT22;10936;49.836;7.078;2023-04-24T16:59:00;9.70;99.90
21551;DHT22;10936;49.836;7.078;2023-04-24T17:01:26;9.50;99.90
21551;DHT22;10936;49.836;7.078;2023-04-24T17:03:52;9.60;99.90
21551;DHT22;10936;49.836;7.078;2023-04-24T17:06:17;9.50;99.90
21551;DHT22;10936;49.836;7.078;2023-04-24T17:08:43;9.60;99.90
21551;DHT22;10936;49.836;7.078;2023-04-24T17:11:08;9.60;99.90
21551;DHT22;10936;49.836;7.078;2023-04-24T17:13:34;9.60;99.90
21551;DHT22;10936;49.836;7.078;2023-04-24T17:16:00;9.50;99.90
21551;DHT22;10936;49.836;7.078;2023-04-24T17:18:26;9.50;99.90
21551;DHT22;10936;49.836;7.078;2023-04-24T17:20:51;9.30;99.90
21551;DHT22;10936;49.836;7.078;2023-04-24T17:23:17;9.20;99.90
21551;DHT22;10936;49.836;7.078;2023-04-24T17:25:42;9.10;99.90
21551;DHT22;10936;49.836;7.078;2023-04-24T17:28:26;8.90;99.90
21551;DHT22;10936;49.836;7.078;2023-04-24T17:30:51;8.90;99.90
21551;DHT22;10936;49.836;7.078;2023-04-24T17:33:20;8.80;99.90
21551;DHT22;10936;49.836;7.078;2023-04-24T17:35:45;8.70;99.90
21551;DHT22;10936;49.836;7.078;2023-04-24T17:38:11;8.60;99.90
21551;DHT22;10936;49.836;7.078;2023-04-24T17:40:37;8.50;99.90
21551;DHT22;10936;49.836;7.078;2023-04-24T17:43:03;8.60;99.90
21551;DHT22;10936;49.836;7.078;2023-04-24T17:45:29;8.50;99.90
21551;DHT22;10936;49.836;7.078;2023-04-24T17:47:55;8.50;99.90
21551;DHT22;10936;49.836;7.078;2023-04-24T17:50:21;8.40;99.90
21551;DHT22;10936;49.836;7.078;2023-04-24T17:52:46;8.40;99.90
21551;DHT22;10936;49.836;7.078;2023-04-24T17:55:12;8.40;99.90
21551;DHT22;10936;49.836;7.078;2023-04-24T17:57:38;8.50;99.90
21551;DHT22;10936;49.836;7.078;2023-04-24T18:00:04;8.50;99.90
21551;DHT22;10936;49.836;7.078;2023-04-24T18:02:30;8.60;99.90
21551;DHT22;10936;49.836;7.078;2023-04-24T18:04:55;8.60;99.90
21551;DHT22;10936;49.836;7.078;2023-04-24T18:07:21;8.50;99.90
21551;DHT22;10936;49.836;7.078;2023-04-24T18:09:46;8.60;99.90
21551;DHT22;10936;49.836;7.078;2023-04-24T18:12:12;8.50;99.90
21551;DHT22;10936;49.836;7.078;2023-04-24T18:14:38;8.50;99.90
21551;DHT22;10936;49.836;7.078;2023-04-24T18:17:04;8.30;99.90
21551;DHT22;10936;49.836;7.078;2023-04-24T18:19:30;8.30;99.90
21551;DHT22;10936;49.836;7.078;2023-04-24T18:21:56;8.30;99.90
21551;DHT22;10936;49.836;7.078;2023-04-24T18:24:22;8.40;99.90
21551;DHT22;10936;49.836;7.078;2023-04-24T18:26:47;8.40;99.90
21551;DHT22;10936;49.836;7.078;2023-04-24T18:29:13;8.40;99.90
21551;DHT22;10936;49.836;7.078;2023-04-24T18:31:38;8.30;99.90
21551;DHT22;10936;49.836;7.078;2023-04-24T18:34:04;8.30;99.90
21551;DHT22;10936;49.836;7.078;2023-04-24T18:36:30;8.30;99.90
21551;DHT22;10936;49.836;7.078;2023-04-24T18:38:56;8.30;99.90
21551;DHT22;10936;49.836;7.078;2023-04-24T18:41:22;8.40;99.90
21551;DHT22;10936;49.836;7.078;2023-04-24T18:43:48;8.40;99.90
21551;DHT22;10936;49.836;7.078;2023-04-24T18:46:15;8.40;99.90
21551;DHT22;10936;49.836;7.078;2023-04-24T18:48:40;8.20;99.90
21551;DHT22;10936;49.836;7.078;2023-04-24T18:51:06;8.20;99.90
21551;DHT22;10936;49.836;7.078;2023-04-24T18:53:31;8.10;99.90
21551;DHT22;10936;49.836;7.078;2023-04-24T18:55:57;8.10;99.90
21551;DHT22;10936;49.836;7.078;2023-04-24T18:58:23;8.20;99.90
21551;DHT22;10936;49.836;7.078;2023-04-24T19:00:48;8.30;99.90
21551;DHT22;10936;49.836;7.078;2023-04-24T19:03:14;8.10;99.90
21551;DHT22;10936;49.836;7.078;2023-04-24T19:05:40;8.00;99.90
21551;DHT22;10936;49.836;7.078;2023-04-24T19:08:06;7.90;99.90
21551;DHT22;10936;49.836;7.078;2023-04-24T19:10:32;7.90;99.90
21551;DHT22;10936;49.836;7.078;2023-04-24T19:12:59;7.90;99.90
21551;DHT22;10936;49.836;7.078;2023-04-24T19:15:25;7.90;99.90
21551;DHT22;10936;49.836;7.078;2023-04-24T19:17:51;7.90;99.90
21551;DHT22;10936;49.836;7.078;2023-04-24T19:20:18;7.80;99.90
21551;DHT22;10936;49.836;7.078;2023-04-24T19:22:44;7.80;99.90
21551;DHT22;10936;49.836;7.078;2023-04-24T19:25:11;7.70;99.90
21551;DHT22;10936;49.836;7.078;2023-04-24T19:27:37;7.50;99.90
21551;DHT22;10936;49.836;7.078;2023-04-24T19:30:03;7.40;99.90
21551;DHT22;10936;49.836;7.078;2023-04-24T19:32:29;7.30;99.90
21551;DHT22;10936;49.836;7.078;2023-04-24T19:34:54;7.20;99.90
21551;DHT22;10936;49.836;7.078;2023-04-24T19:37:21;7.20;99.90
21551;DHT22;10936;49.836;7.078;2023-04-24T19:39:46;7.10;99.90
21551;DHT22;10936;49.836;7.078;2023-04-24T19:42:12;7.10;99.90
21551;DHT22;10936;49.836;7.078;2023-04-24T19:44:37;7.20;99.90
21551;DHT22;10936;49.836;7.078;2023-04-24T19:47:03;7.30;99.90
21551;DHT22;10936;49.836;7.078;2023-04-24T19:49:29;7.40;99.90
21551;DHT22;10936;49.836;7.078;2023-04-24T19:51:55;7.40;99.90
21551;DHT22;10936;49.836;7.078;2023-04-24T19:54:20;7.40;99.90
21551;DHT22;10936;49.836;7.078;2023-04-24T19:56:46;7.40;99.90
21551;DHT22;10936;49.836;7.078;2023-04-24T19:59:12;7.40;99.90
21551;DHT22;10936;49.836;7.078;2023-04-24T20:01:37;7.60;99.90
21551;DHT22;10936;49.836;7.078;2023-04-24T20:04:04;7.60;99.90
21551;DHT22;10936;49.836;7.078;2023-04-24T20:06:32;7.60;99.90
21551;DHT22;10936;49.836;7.078;2023-04-24T20:08:58;7.60;99.90
21551;DHT22;10936;49.836;7.078;2023-04-24T20:11:23;7.60;99.90
21551;DHT22;10936;49.836;7.078;2023-04-24T20:13:50;7.40;99.90
21551;DHT22;10936;49.836;7.078;2023-04-24T20:16:15;7.40;99.90
21551;DHT22;10936;49.836;7.078;2023-04-24T20:18:41;7.30;99.90
21551;DHT22;10936;49.836;7.078;2023-04-24T20:21:07;7.30;99.90
21551;DHT22;10936;49.836;7.078;2023-04-24T20:23:33;7.30;99.90
21551;DHT22;10936;49.836;7.078;2023-04-24T20:25:59;7.40;99.90
21551;DHT22;10936;49.836;7.078;2023-04-24T20:28:28;7.30;99.90
21551;DHT22;10936;49.836;7.078;2023-04-24T20:30:54;7.30;99.90
21551;DHT22;10936;49.836;7.078;2023-04-24T20:33:20;7.40;99.90
21551;DHT22;10936;49.836;7.078;2023-04-24T20:35:46;7.30;99.90
21551;DHT22;10936;49.836;7.078;2023-04-24T20:38:13;7.30;99.90
21551;DHT22;10936;49.836;7.078;2023-04-24T20:40:40;7.30;99.90
21551;DHT22;10936;49.836;7.078;2023-04-24T20:43:06;7.30;99.90
21551;DHT22;10936;49.836;7.078;2023-04-24T20:45:32;7.40;99.90
21551;DHT22;10936;49.836;7.078;2023-04-24T20:47:58;7.40;99.90
21551;DHT22;10936;49.836;7.078;2023-04-24T20:50:23;7.40;99.90